sensor_id;sensor_type;location;lat;lon;timestamp;pressure;altitude;pressure_sealevel;temperature;humidity
70555;BME280;58104;52.744;15.242;2022-12-13T00:00:57;100348.65;;;15.56;45.41
70555;BME280;58104;52.744;15.242;2022-12-13T00:03:22;100348.66;;;15.51;45.50
70555;BME280;58104;52.744;15.242;2022-12-13T00:05:48;100347.68;;;15.53;45.64
70555;BME280;58104;52.744;15.242;2022-12-13T00:08:13;100343.98;;;15.46;45.92
70555;BME280;58104;52.744;15.242;2022-12-13T00:10:39;100343.23;;;15.53;46.13
70555;BME280;58104;52.744;15.242;2022-12-13T00:13:04;100342.06;;;15.54;46.19
70555;BME280;58104;52.744;15.242;2022-12-13T00:15:30;100342.89;;;15.53;46.39
70555;BME280;58104;52.744;15.242;2022-12-13T00:17:55;100339.10;;;15.58;46.34
70555;BME280;58104;52.744;15.242;2022-12-13T00:20:21;100337.82;;;15.58;46.47
70555;BME280;58104;52.744;15.242;2022-12-13T00:22:46;100334.59;;;15.63;46.62
70555;BME280;58104;52.744;15.242;2022-12-13T00:25:12;100332.99;;;15.59;46.78
70555;BME280;58104;52.744;15.242;2022-12-13T00:27:37;100332.70;;;15.60;46.89
70555;BME280;58104;52.744;15.242;2022-12-13T00:30:03;100329.31;;;15.61;46.99
70555;BME280;58104;52.744;15.242;2022-12-13T00:32:28;100326.89;;;15.56;47.09
70555;BME280;58104;52.744;15.242;2022-12-13T00:34:53;100322.73;;;15.64;47.10
70555;BME280;58104;52.744;15.242;2022-12-13T00:37:19;100320.61;;;15.64;47.30
70555;BME280;58104;52.744;15.242;2022-12-13T00:39:44;100324.23;;;15.66;47.51
70555;BME280;58104;52.744;15.242;2022-12-13T00:42:10;100327.48;;;15.66;47.84
70555;BME280;58104;52.744;15.242;2022-12-13T00:44:35;100324.94;;;15.62;47.88
70555;BME280;58104;52.744;15.242;2022-12-13T00:47:01;100320.39;;;15.71;47.92
70555;BME280;58104;52.744;15.242;2022-12-13T00:49:26;100316.83;;;15.73;48.18
70555;BME280;58104;52.744;15.242;2022-12-13T00:51:52;100313.39;;;15.70;48.78
70555;BME280;58104;52.744;15.242;2022-12-13T00:54:17;100316.86;;;15.79;48.62
70555;BME280;58104;52.744;15.242;2022-12-13T00:56:42;100317.61;;;15.73;48.97
70555;BME280;58104;52.744;15.242;2022-12-13T00:59:09;100313.22;;;15.78;49.05
70555;BME280;58104;52.744;15.242;2022-12-13T01:01:35;100311.62;;;15.81;49.02
70555;BME280;58104;52.744;15.242;2022-12-13T01:04:01;100311.53;;;15.75;49.12
70555;BME280;58104;52.744;15.242;2022-12-13T01:06:27;100307.00;;;15.71;49.24
70555;BME280;58104;52.744;15.242;2022-12-13T01:08:50;100311.42;;;15.83;49.19
70555;BME280;58104;52.744;15.242;2022-12-13T01:11:16;100311.45;;;15.82;49.17
70555;BME280;58104;52.744;15.242;2022-12-13T01:13:41;100311.56;;;15.85;49.39
70555;BME280;58104;52.744;15.242;2022-12-13T01:16:09;100312.13;;;15.85;49.60
70555;BME280;58104;52.744;15.242;2022-12-13T01:18:32;100312.53;;;15.86;49.82
70555;BME280;58104;52.744;15.242;2022-12-13T01:20:58;100310.65;;;15.81;50.01
70555;BME280;58104;52.744;15.242;2022-12-13T01:23:23;100308.47;;;15.89;50.36
70555;BME280;58104;52.744;15.242;2022-12-13T01:25:48;100307.96;;;15.89;50.53
70555;BME280;58104;52.744;15.242;2022-12-13T01:28:13;100310.72;;;15.93;50.51
70555;BME280;58104;52.744;15.242;2022-12-13T01:30:39;100310.30;;;15.93;51.01
70555;BME280;58104;52.744;15.242;2022-12-13T01:33:04;100310.03;;;15.86;51.26
70555;BME280;58104;52.744;15.242;2022-12-13T01:35:33;100312.12;;;15.91;51.30
70555;BME280;58104;52.744;15.242;2022-12-13T01:37:55;100307.22;;;15.81;51.60
70555;BME280;58104;52.744;15.242;2022-12-13T01:40:21;100300.03;;;15.82;51.63
70555;BME280;58104;52.744;15.242;2022-12-13T01:42:46;100299.44;;;16.00;51.34
70555;BME280;58104;52.744;15.242;2022-12-13T01:45:21;100296.92;;;15.97;51.45
70555;BME280;58104;52.744;15.242;2022-12-13T01:47:40;100295.96;;;15.99;51.41
70555;BME280;58104;52.744;15.242;2022-12-13T01:50:06;100298.02;;;15.87;51.41
70555;BME280;58104;52.744;15.242;2022-12-13T01:52:29;100295.50;;;15.87;51.43
70555;BME280;58104;52.744;15.242;2022-12-13T01:54:55;100299.29;;;15.98;51.71
70555;BME280;58104;52.744;15.242;2022-12-13T01:57:20;100301.63;;;15.88;51.87
70555;BME280;58104;52.744;15.242;2022-12-13T01:59:44;100295.85;;;15.90;51.84
70555;BME280;58104;52.744;15.242;2022-12-13T02:02:12;100302.95;;;15.96;51.92
70555;BME280;58104;52.744;15.242;2022-12-13T02:04:40;100307.75;;;15.89;51.98
70555;BME280;58104;52.744;15.242;2022-12-13T02:07:01;100306.11;;;15.97;51.98
70555;BME280;58104;52.744;15.242;2022-12-13T02:09:27;100299.95;;;15.92;51.93
70555;BME280;58104;52.744;15.242;2022-12-13T02:11:52;100307.11;;;15.99;51.89
70555;BME280;58104;52.744;15.242;2022-12-13T02:14:17;100304.18;;;15.99;52.12
70555;BME280;58104;52.744;15.242;2022-12-13T02:16:49;100302.58;;;15.94;52.04
70555;BME280;58104;52.744;15.242;2022-12-13T02:19:24;100300.33;;;15.96;51.91
70555;BME280;58104;52.744;15.242;2022-12-13T02:21:36;100304.30;;;16.07;52.39
70555;BME280;58104;52.744;15.242;2022-12-13T02:26:40;100299.48;;;16.04;52.30
70555;BME280;58104;52.744;15.242;2022-12-13T02:29:02;100300.21;;;16.08;52.36
70555;BME280;58104;52.744;15.242;2022-12-13T02:31:17;100300.67;;;16.06;52.39
70555;BME280;58104;52.744;15.242;2022-12-13T02:33:49;100304.57;;;16.13;52.51
70555;BME280;58104;52.744;15.242;2022-12-13T02:36:11;100301.85;;;16.11;52.73
70555;BME280;58104;52.744;15.242;2022-12-13T02:38:38;100305.79;;;15.98;52.66
70555;BME280;58104;52.744;15.242;2022-12-13T02:41:04;100306.35;;;15.98;52.87
70555;BME280;58104;52.744;15.242;2022-12-13T02:43:26;100304.95;;;15.97;52.87
70555;BME280;58104;52.744;15.242;2022-12-13T02:45:50;100308.14;;;16.01;52.97
70555;BME280;58104;52.744;15.242;2022-12-13T02:48:17;100310.54;;;16.01;52.96
70555;BME280;58104;52.744;15.242;2022-12-13T02:50:40;100314.25;;;16.07;53.04
70555;BME280;58104;52.744;15.242;2022-12-13T02:53:05;100310.44;;;16.01;53.13
70555;BME280;58104;52.744;15.242;2022-12-13T02:55:30;100312.46;;;16.02;53.23
70555;BME280;58104;52.744;15.242;2022-12-13T02:57:55;100309.01;;;16.09;53.33
70555;BME280;58104;52.744;15.242;2022-12-13T03:00:23;100312.01;;;16.02;53.41
70555;BME280;58104;52.744;15.242;2022-12-13T03:02:55;100308.05;;;16.17;53.39
70555;BME280;58104;52.744;15.242;2022-12-13T03:05:18;100310.33;;;16.12;53.62
70555;BME280;58104;52.744;15.242;2022-12-13T03:07:43;100305.06;;;16.06;53.69
70555;BME280;58104;52.744;15.242;2022-12-13T03:10:07;100303.50;;;16.06;54.12
70555;BME280;58104;52.744;15.242;2022-12-13T03:12:35;100307.08;;;16.06;53.98
70555;BME280;58104;52.744;15.242;2022-12-13T03:14:58;100307.21;;;16.07;54.10
70555;BME280;58104;52.744;15.242;2022-12-13T03:17:19;100308.81;;;16.10;54.06
70555;BME280;58104;52.744;15.242;2022-12-13T03:19:45;100304.02;;;16.11;54.26
70555;BME280;58104;52.744;15.242;2022-12-13T03:22:10;100305.50;;;16.15;54.22
70555;BME280;58104;52.744;15.242;2022-12-13T03:24:35;100303.56;;;16.15;54.29
70555;BME280;58104;52.744;15.242;2022-12-13T03:27:01;100304.24;;;16.22;54.36
70555;BME280;58104;52.744;15.242;2022-12-13T03:29:26;100303.18;;;16.16;54.46
70555;BME280;58104;52.744;15.242;2022-12-13T03:31:52;100302.85;;;16.16;54.50
70555;BME280;58104;52.744;15.242;2022-12-13T03:34:17;100301.38;;;16.14;54.71
70555;BME280;58104;52.744;15.242;2022-12-13T03:36:43;100301.44;;;16.14;54.63
70555;BME280;58104;52.744;15.242;2022-12-13T03:39:08;100298.14;;;16.15;54.71
70555;BME280;58104;52.744;15.242;2022-12-13T03:41:34;100301.76;;;16.18;55.20
70555;BME280;58104;52.744;15.242;2022-12-13T03:44:02;100298.04;;;16.19;55.38
70555;BME280;58104;52.744;15.242;2022-12-13T03:46:24;100299.03;;;16.19;55.37
70555;BME280;58104;52.744;15.242;2022-12-13T03:48:50;100302.94;;;16.20;55.30
70555;BME280;58104;52.744;15.242;2022-12-13T03:51:16;100297.43;;;16.25;55.20
70555;BME280;58104;52.744;15.242;2022-12-13T03:53:41;100299.78;;;16.28;55.18
70555;BME280;58104;52.744;15.242;2022-12-13T03:56:07;100298.00;;;16.22;55.27
70555;BME280;58104;52.744;15.242;2022-12-13T03:58:33;100295.03;;;16.19;55.19
70555;BME280;58104;52.744;15.242;2022-12-13T04:00:57;100297.74;;;16.23;55.33
70555;BME280;58104;52.744;15.242;2022-12-13T04:03:23;100303.26;;;16.25;55.05
70555;BME280;58104;52.744;15.242;2022-12-13T04:05:48;100302.23;;;16.26;55.00
70555;BME280;58104;52.744;15.242;2022-12-13T04:08:13;100303.53;;;16.27;54.89
70555;BME280;58104;52.744;15.242;2022-12-13T04:10:39;100303.11;;;16.28;54.89
70555;BME280;58104;52.744;15.242;2022-12-13T04:13:04;100300.50;;;16.29;54.87
70555;BME280;58104;52.744;15.242;2022-12-13T04:15:30;100300.21;;;16.27;54.97
70555;BME280;58104;52.744;15.242;2022-12-13T04:17:55;100298.75;;;16.31;54.95
70555;BME280;58104;52.744;15.242;2022-12-13T04:20:21;100298.12;;;16.37;54.89
70555;BME280;58104;52.744;15.242;2022-12-13T04:22:46;100297.82;;;16.25;54.86
70555;BME280;58104;52.744;15.242;2022-12-13T04:25:12;100298.36;;;16.21;55.03
70555;BME280;58104;52.744;15.242;2022-12-13T04:27:38;100294.87;;;16.33;55.09
70555;BME280;58104;52.744;15.242;2022-12-13T04:30:03;100292.13;;;16.21;55.12
70555;BME280;58104;52.744;15.242;2022-12-13T04:32:28;100289.30;;;16.23;55.04
70555;BME280;58104;52.744;15.242;2022-12-13T04:34:53;100291.97;;;16.25;55.15
70555;BME280;58104;52.744;15.242;2022-12-13T04:37:19;100295.45;;;16.24;55.29
70555;BME280;58104;52.744;15.242;2022-12-13T04:39:44;100295.51;;;16.24;55.67
70555;BME280;58104;52.744;15.242;2022-12-13T04:42:14;100293.64;;;16.25;55.96
70555;BME280;58104;52.744;15.242;2022-12-13T04:44:35;100294.71;;;16.34;56.83
70555;BME280;58104;52.744;15.242;2022-12-13T04:47:01;100290.99;;;16.37;55.81
70555;BME280;58104;52.744;15.242;2022-12-13T04:49:26;100291.51;;;16.35;55.85
70555;BME280;58104;52.744;15.242;2022-12-13T04:51:52;100290.24;;;16.28;53.48
70555;BME280;58104;52.744;15.242;2022-12-13T04:54:17;100290.61;;;16.30;53.51
70555;BME280;58104;52.744;15.242;2022-12-13T04:56:43;100290.62;;;16.23;52.09
70555;BME280;58104;52.744;15.242;2022-12-13T04:59:08;100295.84;;;16.21;51.94
70555;BME280;58104;52.744;15.242;2022-12-13T05:01:33;100292.78;;;16.18;51.91
70555;BME280;58104;52.744;15.242;2022-12-13T05:04:01;100293.99;;;16.29;51.83
70555;BME280;58104;52.744;15.242;2022-12-13T05:06:24;100293.46;;;16.16;51.75
70555;BME280;58104;52.744;15.242;2022-12-13T05:08:50;100296.26;;;16.17;51.70
70555;BME280;58104;52.744;15.242;2022-12-13T05:11:15;100292.92;;;16.14;51.72
70555;BME280;58104;52.744;15.242;2022-12-13T05:13:41;100292.71;;;16.19;51.48
70555;BME280;58104;52.744;15.242;2022-12-13T05:16:07;100288.53;;;16.22;51.80
70555;BME280;58104;52.744;15.242;2022-12-13T05:18:31;100288.27;;;16.25;52.10
70555;BME280;58104;52.744;15.242;2022-12-13T05:21:00;100291.42;;;14.73;43.51
70555;BME280;58104;52.744;15.242;2022-12-13T05:23:23;100283.79;;;13.84;44.36
70555;BME280;58104;52.744;15.242;2022-12-13T05:25:47;100285.27;;;12.50;42.33
70555;BME280;58104;52.744;15.242;2022-12-13T05:28:13;100284.04;;;12.78;45.08
70555;BME280;58104;52.744;15.242;2022-12-13T05:30:39;100289.20;;;12.59;43.29
70555;BME280;58104;52.744;15.242;2022-12-13T05:33:04;100285.57;;;12.24;42.76
70555;BME280;58104;52.744;15.242;2022-12-13T05:35:30;100283.41;;;12.11;42.75
70555;BME280;58104;52.744;15.242;2022-12-13T05:37:55;100286.63;;;11.94;42.32
70555;BME280;58104;52.744;15.242;2022-12-13T05:40:21;100285.86;;;11.90;41.80
70555;BME280;58104;52.744;15.242;2022-12-13T05:42:46;100289.89;;;11.67;41.70
70555;BME280;58104;52.744;15.242;2022-12-13T05:45:11;100292.19;;;11.64;39.91
70555;BME280;58104;52.744;15.242;2022-12-13T05:47:38;100279.63;;;11.63;38.90
70555;BME280;58104;52.744;15.242;2022-12-13T05:50:03;100274.23;;;11.82;38.55
70555;BME280;58104;52.744;15.242;2022-12-13T05:52:28;100274.65;;;12.15;44.73
70555;BME280;58104;52.744;15.242;2022-12-13T05:54:53;100275.94;;;13.15;42.41
70555;BME280;58104;52.744;15.242;2022-12-13T05:57:18;100279.71;;;14.04;42.26
70555;BME280;58104;52.744;15.242;2022-12-13T05:59:43;100280.39;;;14.58;40.45
70555;BME280;58104;52.744;15.242;2022-12-13T06:02:09;100273.87;;;15.04;39.67
70555;BME280;58104;52.744;15.242;2022-12-13T06:04:34;100274.89;;;15.28;39.20
70555;BME280;58104;52.744;15.242;2022-12-13T06:06:59;100277.76;;;15.43;39.33
70555;BME280;58104;52.744;15.242;2022-12-13T06:09:25;100277.00;;;15.56;39.65
70555;BME280;58104;52.744;15.242;2022-12-13T06:11:50;100277.92;;;15.63;40.54
70555;BME280;58104;52.744;15.242;2022-12-13T06:14:16;100274.24;;;15.77;40.25
70555;BME280;58104;52.744;15.242;2022-12-13T06:16:41;100275.11;;;15.83;40.65
70555;BME280;58104;52.744;15.242;2022-12-13T06:19:07;100271.49;;;15.80;40.86
70555;BME280;58104;52.744;15.242;2022-12-13T06:21:33;100279.50;;;15.88;40.79
70555;BME280;58104;52.744;15.242;2022-12-13T06:23:57;100282.75;;;15.78;40.87
70555;BME280;58104;52.744;15.242;2022-12-13T06:26:23;100290.19;;;15.91;40.97
70555;BME280;58104;52.744;15.242;2022-12-13T06:28:48;100291.35;;;15.91;41.04
70555;BME280;58104;52.744;15.242;2022-12-13T06:31:13;100294.51;;;15.98;41.26
70555;BME280;58104;52.744;15.242;2022-12-13T06:33:38;100292.06;;;15.91;41.47
70555;BME280;58104;52.744;15.242;2022-12-13T06:36:04;100294.80;;;15.97;41.60
70555;BME280;58104;52.744;15.242;2022-12-13T06:38:29;100296.01;;;15.93;41.68
70555;BME280;58104;52.744;15.242;2022-12-13T06:40:54;100296.56;;;15.96;41.76
70555;BME280;58104;52.744;15.242;2022-12-13T06:43:20;100300.59;;;16.02;41.92
70555;BME280;58104;52.744;15.242;2022-12-13T06:45:45;100302.10;;;15.95;41.86
70555;BME280;58104;52.744;15.242;2022-12-13T06:48:11;100307.41;;;15.92;42.08
70555;BME280;58104;52.744;15.242;2022-12-13T06:50:36;100307.50;;;16.06;42.14
70555;BME280;58104;52.744;15.242;2022-12-13T06:53:01;100307.01;;;15.96;42.19
70555;BME280;58104;52.744;15.242;2022-12-13T06:55:27;100309.13;;;16.06;42.34
70555;BME280;58104;52.744;15.242;2022-12-13T06:57:52;100309.50;;;16.06;42.40
70555;BME280;58104;52.744;15.242;2022-12-13T07:00:18;100315.36;;;16.08;42.38
70555;BME280;58104;52.744;15.242;2022-12-13T07:02:43;100318.46;;;16.11;42.47
70555;BME280;58104;52.744;15.242;2022-12-13T07:05:09;100323.70;;;16.09;42.64
70555;BME280;58104;52.744;15.242;2022-12-13T07:07:34;100327.16;;;16.04;42.62
70555;BME280;58104;52.744;15.242;2022-12-13T07:10:00;100332.85;;;16.09;42.75
70555;BME280;58104;52.744;15.242;2022-12-13T07:12:25;100333.25;;;16.02;42.82
70555;BME280;58104;52.744;15.242;2022-12-13T07:14:51;100334.62;;;16.08;42.80
70555;BME280;58104;52.744;15.242;2022-12-13T07:17:16;100341.61;;;16.07;42.83
70555;BME280;58104;52.744;15.242;2022-12-13T07:19:41;100340.93;;;16.09;42.88
70555;BME280;58104;52.744;15.242;2022-12-13T07:22:06;100341.85;;;16.15;42.92
70555;BME280;58104;52.744;15.242;2022-12-13T07:24:33;100341.22;;;16.11;42.94
70555;BME280;58104;52.744;15.242;2022-12-13T07:26:57;100351.59;;;16.14;42.89
70555;BME280;58104;52.744;15.242;2022-12-13T07:29:22;100352.17;;;16.14;43.01
70555;BME280;58104;52.744;15.242;2022-12-13T07:31:48;100354.28;;;16.20;43.00
70555;BME280;58104;52.744;15.242;2022-12-13T07:34:13;100360.16;;;16.18;43.02
70555;BME280;58104;52.744;15.242;2022-12-13T07:36:39;100360.87;;;16.20;43.04
70555;BME280;58104;52.744;15.242;2022-12-13T07:39:04;100367.62;;;16.23;43.00
70555;BME280;58104;52.744;15.242;2022-12-13T07:41:30;100362.65;;;16.18;43.00
70555;BME280;58104;52.744;15.242;2022-12-13T07:43:55;100366.08;;;16.27;43.02
70555;BME280;58104;52.744;15.242;2022-12-13T07:46:21;100369.85;;;16.23;43.01
70555;BME280;58104;52.744;15.242;2022-12-13T07:48:46;100364.51;;;16.30;43.04
70555;BME280;58104;52.744;15.242;2022-12-13T07:51:11;100369.80;;;16.31;43.00
70555;BME280;58104;52.744;15.242;2022-12-13T07:53:37;100363.46;;;16.33;42.97
70555;BME280;58104;52.744;15.242;2022-12-13T07:56:03;100363.91;;;16.29;43.00
70555;BME280;58104;52.744;15.242;2022-12-13T07:58:27;100370.60;;;16.40;42.93
70555;BME280;58104;52.744;15.242;2022-12-13T08:00:58;100369.57;;;16.48;42.80
70555;BME280;58104;52.744;15.242;2022-12-13T08:03:18;100375.65;;;16.43;42.80
70555;BME280;58104;52.744;15.242;2022-12-13T08:05:44;100375.92;;;16.44;42.81
70555;BME280;58104;52.744;15.242;2022-12-13T08:08:09;100378.21;;;16.45;42.82
70555;BME280;58104;52.744;15.242;2022-12-13T08:10:35;100392.39;;;16.40;42.93
70555;BME280;58104;52.744;15.242;2022-12-13T08:13:00;100388.63;;;16.46;42.94
70555;BME280;58104;52.744;15.242;2022-12-13T08:15:25;100387.57;;;16.41;42.98
70555;BME280;58104;52.744;15.242;2022-12-13T08:17:54;100385.00;;;16.48;42.98
70555;BME280;58104;52.744;15.242;2022-12-13T08:20:16;100385.04;;;16.38;42.94
70555;BME280;58104;52.744;15.242;2022-12-13T08:22:42;100385.50;;;16.50;42.99
70555;BME280;58104;52.744;15.242;2022-12-13T08:25:08;100383.97;;;16.46;42.95
70555;BME280;58104;52.744;15.242;2022-12-13T08:27:32;100391.44;;;16.41;43.07
70555;BME280;58104;52.744;15.242;2022-12-13T08:29:58;100394.50;;;16.41;43.12
70555;BME280;58104;52.744;15.242;2022-12-13T08:32:23;100394.94;;;16.36;43.07
70555;BME280;58104;52.744;15.242;2022-12-13T08:34:49;100392.72;;;16.48;42.97
70555;BME280;58104;52.744;15.242;2022-12-13T08:37:14;100398.84;;;16.47;43.02
70555;BME280;58104;52.744;15.242;2022-12-13T08:39:40;100400.06;;;16.52;42.96
70555;BME280;58104;52.744;15.242;2022-12-13T08:42:07;100395.75;;;16.50;42.98
70555;BME280;58104;52.744;15.242;2022-12-13T08:44:31;100399.71;;;16.49;42.94
70555;BME280;58104;52.744;15.242;2022-12-13T08:46:56;100404.56;;;16.55;42.98
70555;BME280;58104;52.744;15.242;2022-12-13T08:49:21;100408.39;;;16.49;43.01
70555;BME280;58104;52.744;15.242;2022-12-13T08:51:47;100409.36;;;16.50;43.00
70555;BME280;58104;52.744;15.242;2022-12-13T08:54:12;100406.06;;;16.46;43.09
70555;BME280;58104;52.744;15.242;2022-12-13T08:56:38;100407.41;;;16.53;43.10
70555;BME280;58104;52.744;15.242;2022-12-13T08:59:03;100409.38;;;16.51;43.05
70555;BME280;58104;52.744;15.242;2022-12-13T09:01:29;100411.25;;;16.58;42.98
70555;BME280;58104;52.744;15.242;2022-12-13T09:03:54;100413.81;;;16.59;42.95
70555;BME280;58104;52.744;15.242;2022-12-13T09:06:19;100412.90;;;16.54;43.01
70555;BME280;58104;52.744;15.242;2022-12-13T09:08:45;100418.43;;;16.55;43.02
70555;BME280;58104;52.744;15.242;2022-12-13T09:11:10;100407.39;;;16.56;42.99
70555;BME280;58104;52.744;15.242;2022-12-13T09:13:36;100409.36;;;16.60;42.91
70555;BME280;58104;52.744;15.242;2022-12-13T09:16:03;100412.96;;;16.62;42.88
70555;BME280;58104;52.744;15.242;2022-12-13T09:18:26;100411.89;;;16.59;42.94
70555;BME280;58104;52.744;15.242;2022-12-13T09:20:52;100412.04;;;16.62;42.89
70555;BME280;58104;52.744;15.242;2022-12-13T09:23:17;100410.41;;;16.64;42.85
70555;BME280;58104;52.744;15.242;2022-12-13T09:25:43;100413.15;;;16.65;42.83
70555;BME280;58104;52.744;15.242;2022-12-13T09:28:08;100409.35;;;16.66;42.80
70555;BME280;58104;52.744;15.242;2022-12-13T09:30:34;100413.73;;;16.68;42.79
70555;BME280;58104;52.744;15.242;2022-12-13T09:32:59;100415.05;;;16.69;42.78
70555;BME280;58104;52.744;15.242;2022-12-13T09:35:24;100419.14;;;16.71;42.75
70555;BME280;58104;52.744;15.242;2022-12-13T09:37:50;100420.07;;;16.69;42.62
70555;BME280;58104;52.744;15.242;2022-12-13T09:40:19;100418.67;;;16.69;42.68
70555;BME280;58104;52.744;15.242;2022-12-13T09:42:44;100411.90;;;16.79;42.61
70555;BME280;58104;52.744;15.242;2022-12-13T09:45:09;100415.87;;;16.84;42.50
70555;BME280;58104;52.744;15.242;2022-12-13T09:47:34;100416.11;;;16.88;42.40
70555;BME280;58104;52.744;15.242;2022-12-13T09:49:58;100418.08;;;16.79;42.48
70555;BME280;58104;52.744;15.242;2022-12-13T09:52:24;100416.81;;;16.78;42.50
70555;BME280;58104;52.744;15.242;2022-12-13T09:54:49;100422.59;;;16.90;42.40
70555;BME280;58104;52.744;15.242;2022-12-13T09:57:17;100421.63;;;16.96;42.37
70555;BME280;58104;52.744;15.242;2022-12-13T09:59:40;100422.62;;;16.87;42.45
70555;BME280;58104;52.744;15.242;2022-12-13T10:02:14;100417.56;;;16.95;42.41
70555;BME280;58104;52.744;15.242;2022-12-13T10:04:30;100415.64;;;16.88;42.44
70555;BME280;58104;52.744;15.242;2022-12-13T10:06:56;100422.70;;;16.92;42.37
70555;BME280;58104;52.744;15.242;2022-12-13T10:09:21;100417.22;;;16.85;42.41
70555;BME280;58104;52.744;15.242;2022-12-13T10:11:48;100417.11;;;16.99;42.25
70555;BME280;58104;52.744;15.242;2022-12-13T10:14:17;100415.14;;;17.09;42.17
70555;BME280;58104;52.744;15.242;2022-12-13T10:16:42;100416.71;;;17.05;42.11
70555;BME280;58104;52.744;15.242;2022-12-13T10:19:11;100417.47;;;16.91;42.18
70555;BME280;58104;52.744;15.242;2022-12-13T10:21:34;100417.87;;;17.06;42.12
70555;BME280;58104;52.744;15.242;2022-12-13T10:23:54;100416.86;;;17.01;42.08
70555;BME280;58104;52.744;15.242;2022-12-13T10:26:19;100415.47;;;16.99;41.97
70555;BME280;58104;52.744;15.242;2022-12-13T10:28:45;100414.55;;;17.00;42.04
70555;BME280;58104;52.744;15.242;2022-12-13T10:31:15;100413.70;;;17.18;41.91
70555;BME280;58104;52.744;15.242;2022-12-13T10:33:37;100414.12;;;17.14;41.87
70555;BME280;58104;52.744;15.242;2022-12-13T10:36:07;100414.34;;;17.17;41.79
70555;BME280;58104;52.744;15.242;2022-12-13T10:38:29;100410.08;;;17.15;41.73
70555;BME280;58104;52.744;15.242;2022-12-13T10:40:52;100408.38;;;17.15;41.75
70555;BME280;58104;52.744;15.242;2022-12-13T10:43:19;100410.23;;;17.18;41.70
70555;BME280;58104;52.744;15.242;2022-12-13T10:48:18;100408.83;;;17.30;41.44
70555;BME280;58104;52.744;15.242;2022-12-13T10:50:34;100404.33;;;17.29;41.47
70555;BME280;58104;52.744;15.242;2022-12-13T10:53:00;100406.65;;;17.49;41.29
70555;BME280;58104;52.744;15.242;2022-12-13T10:55:27;100410.24;;;17.45;41.02
70555;BME280;58104;52.744;15.242;2022-12-13T10:57:51;100410.31;;;17.51;41.01
70555;BME280;58104;52.744;15.242;2022-12-13T11:02:52;100407.49;;;17.60;40.85
70555;BME280;58104;52.744;15.242;2022-12-13T11:05:20;100403.41;;;17.60;40.80
70555;BME280;58104;52.744;15.242;2022-12-13T11:07:32;100404.63;;;17.51;40.92
70555;BME280;58104;52.744;15.242;2022-12-13T11:12:24;100409.43;;;17.44;40.98
70555;BME280;58104;52.744;15.242;2022-12-13T11:14:53;100409.18;;;17.52;40.95
70555;BME280;58104;52.744;15.242;2022-12-13T11:17:16;100403.44;;;17.55;40.93
70555;BME280;58104;52.744;15.242;2022-12-13T11:19:44;100405.20;;;17.57;40.92
70555;BME280;58104;52.744;15.242;2022-12-13T11:22:05;100405.17;;;17.65;40.86
70555;BME280;58104;52.744;15.242;2022-12-13T11:24:32;100401.52;;;17.63;40.91
70555;BME280;58104;52.744;15.242;2022-12-13T11:26:58;100406.16;;;17.61;40.80
70555;BME280;58104;52.744;15.242;2022-12-13T11:29:36;100403.63;;;17.61;40.81
70555;BME280;58104;52.744;15.242;2022-12-13T11:31:53;100404.76;;;17.61;40.73
70555;BME280;58104;52.744;15.242;2022-12-13T11:34:18;100402.04;;;17.56;40.87
70555;BME280;58104;52.744;15.242;2022-12-13T11:36:41;100406.49;;;17.59;40.94
70555;BME280;58104;52.744;15.242;2022-12-13T11:39:13;100405.20;;;17.59;40.98
70555;BME280;58104;52.744;15.242;2022-12-13T11:41:32;100407.69;;;17.57;41.08
70555;BME280;58104;52.744;15.242;2022-12-13T11:43:56;100408.49;;;17.58;41.04
70555;BME280;58104;52.744;15.242;2022-12-13T11:46:34;100410.62;;;17.58;41.05
70555;BME280;58104;52.744;15.242;2022-12-13T11:48:48;100411.15;;;17.55;41.06
70555;BME280;58104;52.744;15.242;2022-12-13T11:51:12;100407.99;;;17.54;41.12
70555;BME280;58104;52.744;15.242;2022-12-13T11:53:43;100412.57;;;17.44;41.19
70555;BME280;58104;52.744;15.242;2022-12-13T11:56:06;100411.87;;;17.47;41.24
70555;BME280;58104;52.744;15.242;2022-12-13T11:58:31;100412.54;;;17.52;41.13
70555;BME280;58104;52.744;15.242;2022-12-13T12:00:56;100412.06;;;17.54;41.10
70555;BME280;58104;52.744;15.242;2022-12-13T12:03:19;100413.10;;;17.51;41.17
70555;BME280;58104;52.744;15.242;2022-12-13T12:05:47;100412.98;;;17.59;41.23
70555;BME280;58104;52.744;15.242;2022-12-13T12:08:12;100415.99;;;17.46;41.14
70555;BME280;58104;52.744;15.242;2022-12-13T12:10:36;100418.11;;;17.49;41.06
70555;BME280;58104;52.744;15.242;2022-12-13T12:13:04;100410.39;;;17.59;41.10
70555;BME280;58104;52.744;15.242;2022-12-13T12:15:28;100409.28;;;17.56;40.66
70555;BME280;58104;52.744;15.242;2022-12-13T12:17:49;100412.92;;;17.70;40.60
70555;BME280;58104;52.744;15.242;2022-12-13T12:20:19;100410.62;;;17.88;40.28
70555;BME280;58104;52.744;15.242;2022-12-13T12:22:45;100411.23;;;18.08;39.79
70555;BME280;58104;52.744;15.242;2022-12-13T12:25:18;100409.08;;;18.13;39.83
70555;BME280;58104;52.744;15.242;2022-12-13T12:27:37;100409.91;;;18.22;39.54
70555;BME280;58104;52.744;15.242;2022-12-13T12:30:05;100408.96;;;18.31;39.21
70555;BME280;58104;52.744;15.242;2022-12-13T12:32:31;100410.08;;;18.34;39.04
70555;BME280;58104;52.744;15.242;2022-12-13T12:34:54;100411.31;;;18.25;39.10
70555;BME280;58104;52.744;15.242;2022-12-13T12:37:18;100413.29;;;18.46;39.00
70555;BME280;58104;52.744;15.242;2022-12-13T12:39:43;100415.38;;;18.65;38.38